Time;durP1;ratioP1;P1;durP2;ratioP2;P2;SDS_P1;SDS_P2;PMS_P1;PMS_P2;Temp;Humidity;BMP_temperature;BMP_pressure;BME280_temperature;BME280_humidity;BME280_pressure;Samples;Min_cycle;Max_cycle;Signal;HPM_P1;HPM_P2
2021/06/13 00:00:43;;;;;;;7.72;6.70;;;538.40;1945.60;;;;;;5032164;28;20032;-65
2021/06/13 00:03:09;;;;;;;8.40;6.55;;;538.30;1945.60;;;;;;5032268;28;20060;-63
2021/06/13 00:05:35;;;;;;;11.73;6.70;;;538.30;1945.60;;;;;;5032474;28;20026;-65
2021/06/13 00:08:02;;;;;;;7.20;6.50;;;538.30;1945.60;;;;;;5035709;28;20025;-62
2021/06/13 00:10:27;;;;;;;10.48;7.72;;;538.10;1971.20;;;;;;5036242;28;20105;-63
2021/06/13 00:12:53;;;;;;;11.65;7.35;;;538.20;1945.60;;;;;;5035714;28;20120;-64
2021/06/13 00:15:24;;;;;;;11.30;6.75;;;538.20;1945.60;;;;;;5035988;28;20102;-66
2021/06/13 00:17:51;;;;;;;8.60;7.80;;;538.20;1971.20;;;;;;5035994;28;20103;-63
2021/06/13 00:20:22;;;;;;;8.05;7.25;;;538.20;1971.20;;;;;;5035655;28;20028;-63
2021/06/13 00:22:48;;;;;;;7.70;6.90;;;538.20;1971.20;;;;;;5035619;28;20041;-61
2021/06/13 00:25:14;;;;;;;9.18;7.70;;;;;;;;;;5038369;28;20037;-63
2021/06/13 00:27:40;;;;;;;8.10;6.97;;;;;;;;;;5033575;28;20379;-63
2021/06/13 00:30:08;;;;;;;8.00;6.72;;;;;;;;;;5024779;28;20013;-67
2021/06/13 00:32:34;;;;;;;7.30;6.60;;;;;;;;;;5035718;28;20072;-64
2021/06/13 00:35:00;;;;;;;7.78;6.72;;;;;;;;;;5035470;28;20064;-64
2021/06/13 00:37:26;;;;;;;8.85;7.25;;;;;;;;;;5035529;28;20113;-66
2021/06/13 00:39:52;;;;;;;7.70;6.90;;;;;;;;;;5035398;28;20521;-63
2021/06/13 00:42:19;;;;;;;10.15;7.28;;;;;;;;;;5035531;28;20487;-68
2021/06/13 00:44:45;;;;;;;9.13;7.15;;;;;;;;;;5035359;28;20030;-65
2021/06/13 00:47:11;;;;;;;7.78;6.30;;;;;;;;;;5035248;28;20485;-63
2021/06/13 00:49:37;;;;;;;8.20;7.20;;;;;;;;;;5035085;28;20071;-68
2021/06/13 00:52:04;;;;;;;7.63;6.78;;;;;;;;;;5035284;28;20076;-64
2021/06/13 00:54:30;;;;;;;7.75;6.85;;;;;;;;;;5046202;28;20036;-66
2021/06/13 00:56:56;;;;;;;7.20;6.45;;;;;;;;;;5035827;28;20018;-64
2021/06/13 00:59:22;;;;;;;7.82;6.80;;;;;;;;;;5035195;28;20025;-64
2021/06/13 01:01:48;;;;;;;7.70;6.88;;;;;;;;;;5035007;28;20029;-65
2021/06/13 01:04:14;;;;;;;7.05;6.28;;;;;;;;;;5035132;28;20391;-64
2021/06/13 01:06:43;;;;;;;6.85;6.13;;;;;;;;;;5034963;28;20017;-65
2021/06/13 01:09:11;;;;;;;11.60;6.60;;;;;;;;;;5034835;28;20578;-64
2021/06/13 01:11:39;;;;;;;7.68;6.28;;;;;;;;;;5034863;28;20037;-64
2021/06/13 01:14:07;;;;;;;9.57;6.95;;;;;;;;;;5034956;28;20080;-67
2021/06/13 01:16:40;;;;;;;8.05;6.88;;;;;;;;;;5034855;28;20025;-65
2021/06/13 01:19:33;;;;;;;7.93;6.55;;;;;;;;;;5034302;28;20622;-65
2021/06/13 01:22:00;;;;;;;8.05;7.10;;;;;;;;;;5034713;28;20356;-65
2021/06/13 01:24:40;;;;;;;9.48;7.38;;;;;;;;;;5036726;28;20164;-67
2021/06/13 01:27:15;;;;;;;7.87;6.57;;;537.80;1945.60;;;;;;5034464;28;20109;-64
2021/06/13 01:29:44;;;;;;;8.65;6.30;;;537.70;1971.20;;;;;;5020561;28;20345;-63
2021/06/13 01:32:18;;;;;;;7.45;6.60;;;537.90;1945.60;;;;;;5034485;28;20029;-62
2021/06/13 01:34:50;;;;;;;8.85;7.13;;;538.00;1920.00;;;;;;5034462;28;20475;-63
2021/06/13 01:37:20;;;;;;;8.13;6.47;;;538.20;1945.60;;;;;;5016436;28;20091;-65
2021/06/13 01:39:50;;;;;;;8.88;6.70;;;538.20;1920.00;;;;;;5034347;28;20495;-66
2021/06/13 01:42:17;;;;;;;9.18;7.60;;;538.30;1920.00;;;;;;5034469;28;20460;-62
2021/06/13 01:44:46;;;;;;;11.75;7.40;;;538.10;1920.00;;;;;;5034184;28;20033;-63
2021/06/13 01:47:12;;;;;;;11.20;9.40;;;538.00;1945.60;;;;;;5034280;28;20022;-64
2021/06/13 01:49:40;;;;;;;13.18;10.27;;;537.90;1945.60;;;;;;5034003;28;20065;-65
2021/06/13 01:52:08;;;;;;;19.73;12.63;;;538.00;1945.60;;;;;;5016404;28;20318;-63
2021/06/13 01:54:34;;;;;;;16.75;11.65;;;538.00;1945.60;;;;;;5045364;28;20064;-62
2021/06/13 01:57:00;;;;;;;9.23;7.75;;;538.00;1945.60;;;;;;5020192;28;20109;-62
2021/06/13 01:59:26;;;;;;;9.05;6.90;;;537.90;1945.60;;;;;;5033931;28;20093;-63
2021/06/13 02:01:57;;;;;;;10.45;6.97;;;537.90;1971.20;;;;;;5033825;28;20025;-63
2021/06/13 02:04:26;;;;;;;12.33;6.80;;;537.70;1971.20;;;;;;5033892;28;20029;-63
2021/06/13 02:06:58;;;;;;;9.85;7.15;;;537.70;1996.80;;;;;;5033728;28;20487;-62
2021/06/13 02:09:24;;;;;;;10.68;6.88;;;537.90;1971.20;;;;;;5034014;28;20503;-63
2021/06/13 02:11:51;;;;;;;10.80;7.75;;;538.00;1971.20;;;;;;5034144;28;20036;-64
2021/06/13 02:14:22;;;;;;;8.38;7.43;;;538.10;1945.60;;;;;;5033949;28;20034;-63
2021/06/13 02:16:48;;;;;;;9.27;7.80;;;538.00;1971.20;;;;;;5033569;28;20021;-63
2021/06/13 02:19:18;;;;;;;7.72;6.90;;;537.90;1971.20;;;;;;5033736;28;20373;-62
2021/06/13 02:21:46;;;;;;;8.48;7.10;;;537.90;1971.20;;;;;;5033747;28;20018;-63
2021/06/13 02:24:15;;;;;;;8.25;6.53;;;537.90;1996.80;;;;;;5035522;28;20175;-63
2021/06/13 02:26:42;;;;;;;13.13;7.30;;;537.70;1996.80;;;;;;5033638;28;20032;-63
2021/06/13 02:29:10;;;;;;;7.63;6.47;;;537.70;2022.40;;;;;;5018937;28;20037;-63
2021/06/13 02:31:40;;;;;;;7.65;6.88;;;537.60;2022.40;;;;;;5033619;28;20022;-62
2021/06/13 02:34:07;;;;;;;7.90;7.10;;;537.60;2022.40;;;;;;5033389;28;20030;-64
2021/06/13 02:36:34;;;;;;;7.75;7.03;;;512.90;2048.00;;;;;;5033471;28;20044;-64
2021/06/13 02:39:00;;;;;;;7.78;6.40;;;537.60;2048.00;;;;;;5033398;28;20034;-63
2021/06/13 02:41:26;;;;;;;7.65;6.90;;;512.90;2048.00;;;;;;5015283;28;20029;-65
2021/06/13 02:43:53;;;;;;;7.70;6.82;;;512.80;2048.00;;;;;;5033318;28;20426;-68
2021/06/13 02:46:19;;;;;;;7.70;7.00;;;;;;;;;;5033093;28;20031;-68
2021/06/13 02:48:45;;;;;;;7.50;6.80;;;;;;;;;;5033189;28;20022;-69
2021/06/13 02:51:12;;;;;;;7.47;6.68;;;;;;;;;;5032889;28;20057;-67
2021/06/13 02:53:43;;;;;;;7.78;6.97;;;;;;;;;;5035910;28;20076;-71
2021/06/13 02:56:13;;;;;;;10.77;6.70;;;;;;;;;;5022232;28;20707;-70
2021/06/13 02:58:54;;;;;;;8.38;6.90;;;;;;;;;;5032884;28;20040;-71
2021/06/13 03:01:22;;;;;;;8.30;6.93;;;;;;;;;;5033183;28;20112;-67
2021/06/13 03:03:49;;;;;;;7.53;6.75;;;;;;;;;;5033073;28;20014;-69
2021/06/13 03:06:19;;;;;;;8.15;6.55;;;538.10;1945.60;;;;;;5033030;28;20033;-65
2021/06/13 03:08:46;;;;;;;9.70;7.53;;;538.00;1971.20;;;;;;5032522;28;20104;-66
2021/06/13 03:11:13;;;;;;;10.00;6.85;;;537.80;2022.40;;;;;;5032739;28;20033;-66
2021/06/13 03:13:40;;;;;;;10.20;7.00;;;537.80;2022.40;;;;;;5032561;28;20117;-65
2021/06/13 03:16:07;;;;;;;8.07;7.25;;;537.70;2022.40;;;;;;5032887;28;20104;-64
2021/06/13 03:18:35;;;;;;;7.25;6.45;;;537.70;2022.40;;;;;;5032956;28;20029;-65
2021/06/13 03:21:01;;;;;;;8.18;6.70;;;537.70;2022.40;;;;;;5032344;28;20043;-64
2021/06/13 03:23:30;;;;;;;9.85;7.47;;;537.70;2022.40;;;;;;5033597;28;20053;-65
2021/06/13 03:26:01;;;;;;;10.05;7.55;;;537.60;2073.60;;;;;;5001404;28;20048;-66
2021/06/13 03:28:30;;;;;;;8.60;6.55;;;537.60;2048.00;;;;;;5023933;28;20050;-65
2021/06/13 03:30:56;;;;;;;9.52;6.60;;;512.90;2048.00;;;;;;5027681;28;20036;-66
2021/06/13 03:33:23;;;;;;;8.90;7.97;;;537.60;2099.20;;;;;;5032423;28;20030;-66
2021/06/13 03:35:51;;;;;;;9.48;8.52;;;537.90;2048.00;;;;;;5032456;28;20036;-70
2021/06/13 03:38:19;;;;;;;9.80;6.40;;;538.00;2022.40;;;;;;5032264;28;20064;-65
2021/06/13 03:40:46;;;;;;;6.63;5.82;;;538.00;1996.80;;;;;;5032216;28;20511;-66
2021/06/13 03:43:13;;;;;;;7.97;6.10;;;538.20;1945.60;;;;;;5032237;28;20070;-70
2021/06/13 03:45:39;;;;;;;7.00;5.68;;;538.30;1996.80;;;;;;5032290;28;20017;-68
2021/06/13 03:48:06;;;;;;;10.25;6.40;;;;;;;;;;5032280;28;20515;-65
2021/06/13 03:50:32;;;;;;;6.68;6.07;;;538.50;2048.00;;;;;;5032287;28;20038;-64
2021/06/13 03:53:01;;;;;;;6.75;6.05;;;538.50;1996.80;;;;;;5031939;28;20038;-68
2021/06/13 03:55:27;;;;;;;7.82;6.18;;;538.50;2022.40;;;;;;5043023;28;20036;-67
2021/06/13 03:57:54;;;;;;;7.75;6.40;;;538.40;2022.40;;;;;;5032253;28;20033;-62
2021/06/13 04:00:21;;;;;;;6.97;6.25;;;538.40;2099.20;;;;;;5032142;28;20017;-66
2021/06/13 04:02:48;;;;;;;7.55;6.70;;;538.50;2124.80;;;;;;5032109;28;20017;-66
2021/06/13 04:05:17;;;;;;;7.03;5.95;;;563.20;2124.80;;;;;;5032053;28;20033;-65
2021/06/13 04:07:43;;;;;;;6.70;6.10;;;563.20;2099.20;;;;;;5032208;28;20072;-65
2021/06/13 04:10:10;;;;;;;8.20;6.35;;;538.30;2048.00;;;;;;5031895;28;20116;-64
2021/06/13 04:12:37;;;;;;;8.02;6.53;;;538.10;2099.20;;;;;;5032363;28;20038;-65
2021/06/13 04:15:04;;;;;;;8.45;6.53;;;538.40;2124.80;;;;;;5031958;28;20018;-65
2021/06/13 04:17:30;;;;;;;9.27;6.53;;;538.40;2099.20;;;;;;5032088;28;20026;-64
2021/06/13 04:19:56;;;;;;;7.47;6.68;;;538.40;2099.20;;;;;;5032001;28;20028;-64
2021/06/13 04:22:22;;;;;;;6.97;6.28;;;538.40;2099.20;;;;;;5031659;28;20100;-64
2021/06/13 04:24:50;;;;;;;9.02;6.68;;;538.50;2124.80;;;;;;5033264;28;20396;-64
2021/06/13 04:27:22;;;;;;;7.05;6.35;;;538.50;2073.60;;;;;;5031866;28;20017;-65
2021/06/13 04:29:49;;;;;;;8.75;6.88;;;538.50;2099.20;;;;;;5031995;28;20566;-64
2021/06/13 04:32:15;;;;;;;7.45;6.30;;;538.50;2150.40;;;;;;5031858;28;20083;-65
2021/06/13 04:34:41;;;;;;;7.68;6.80;;;538.50;2176.00;;;;;;5031748;28;20022;-70
2021/06/13 04:37:08;;;;;;;7.93;7.13;;;538.50;2176.00;;;;;;5032193;28;20030;-66
2021/06/13 04:39:35;;;;;;;7.35;6.50;;;563.20;2201.60;;;;;;5031661;28;20028;-65
2021/06/13 04:42:03;;;;;;;6.95;6.25;;;538.50;2124.80;;;;;;5032204;28;20028;-64
2021/06/13 04:44:29;;;;;;;7.25;5.82;;;563.20;2099.20;;;;;;5031703;28;20030;-65
2021/06/13 04:46:55;;;;;;;7.50;6.22;;;538.50;2073.60;;;;;;5031752;28;20020;-64
2021/06/13 04:49:21;;;;;;;6.85;5.97;;;538.50;2099.20;;;;;;5013954;28;20069;-67
2021/06/13 04:51:50;;;;;;;7.88;6.68;;;538.50;2099.20;;;;;;5031430;28;20084;-65
2021/06/13 04:54:22;;;;;;;7.13;6.43;;;538.40;2099.20;;;;;;5043362;28;20041;-64
2021/06/13 04:56:50;;;;;;;;;;;538.30;2099.20;;;;;;5037519;28;20018;-67
2021/06/13 04:59:16;;;;;;;7.53;6.28;;;538.30;2099.20;;;;;;5035386;28;19905;-70
2021/06/13 05:01:42;;;;;;;7.57;6.70;;;538.40;2099.20;;;;;;5035468;28;20032;-72
2021/06/13 05:04:08;;;;;;;6.97;6.10;;;538.50;2073.60;;;;;;5035137;28;20419;-68
2021/06/13 05:06:35;;;;;;;7.90;6.72;;;538.40;2073.60;;;;;;5034801;28;20067;-68
2021/06/13 05:09:01;;;;;;;7.00;6.30;;;538.50;2099.20;;;;;;5035166;28;20017;-67
2021/06/13 05:11:27;;;;;;;7.65;6.85;;;538.50;2073.60;;;;;;5035185;28;20036;-69
2021/06/13 05:13:53;;;;;;;7.72;6.88;;;538.50;2048.00;;;;;;5034728;28;20025;-70
2021/06/13 05:16:19;;;;;;;8.68;7.13;;;538.50;2150.40;;;;;;5034989;28;20067;-73
2021/06/13 05:18:45;;;;;;;10.63;7.07;;;538.50;2124.80;;;;;;5034796;28;20045;-62
2021/06/13 05:21:11;;;;;;;8.60;7.00;;;538.50;2150.40;;;;;;5034596;28;20148;-64
2021/06/13 05:23:36;;;;;;;8.90;7.13;;;538.50;2150.40;;;;;;5035436;28;20049;-64
2021/06/13 05:26:03;;;;;;;8.13;6.97;;;538.40;2176.00;;;;;;5034745;28;20021;-63
2021/06/13 05:28:29;;;;;;;8.55;6.88;;;538.40;2201.60;;;;;;5025640;28;20388;-65
2021/06/13 05:30:55;;;;;;;9.13;7.47;;;538.40;2227.20;;;;;;5030128;28;20028;-67
2021/06/13 05:33:22;;;;;;;10.77;8.20;;;538.40;2227.20;;;;;;5034567;28;20038;-66
2021/06/13 05:35:49;;;;;;;12.93;8.30;;;538.30;2278.40;;;;;;5034362;28;20106;-62
2021/06/13 05:38:15;;;;;;;9.40;7.70;;;538.40;2304.00;;;;;;5016686;28;20022;-63
2021/06/13 05:40:42;;;;;;;8.90;8.00;;;538.30;2252.80;;;;;;5034515;28;20072;-67
2021/06/13 05:43:09;;;;;;;10.18;7.68;;;538.50;2227.20;;;;;;5034518;28;20040;-63
2021/06/13 05:45:36;;;;;;;8.65;7.80;;;538.50;2278.40;;;;;;5034686;28;20036;-63
2021/06/13 05:48:02;;;;;;;8.82;7.93;;;538.50;2252.80;;;;;;5034230;28;20033;-70
2021/06/13 05:50:29;;;;;;;11.07;7.78;;;538.50;2252.80;;;;;;5034059;28;20029;-69
2021/06/13 05:52:55;;;;;;;9.32;7.75;;;538.40;2304.00;;;;;;5034118;28;20472;-69
2021/06/13 05:55:21;;;;;;;10.93;8.10;;;538.30;2329.60;;;;;;5044023;28;20033;-71
2021/06/13 05:57:48;;;;;;;9.48;7.55;;;538.20;2380.80;;;;;;5034288;28;20025;-65
2021/06/13 06:00:18;;;;;;;11.90;8.82;;;;;;;;;;5034072;28;20040;-65
2021/06/13 06:02:45;;;;;;;8.65;7.82;;;;;;;;;;5034151;28;20053;-64
2021/06/13 06:05:12;;;;;;;11.48;9.50;;;;;;;;;;5033725;28;20476;-63
2021/06/13 06:07:38;;;;;;;13.55;9.77;;;;;;;;;;5034008;28;20032;-69
2021/06/13 06:10:05;;;;;;;11.20;9.95;;;;;;;;;;5034076;28;20026;-64
2021/06/13 06:12:31;;;;;;;10.27;8.13;;;;;;;;;;5033754;28;20035;-62
2021/06/13 06:14:57;;;;;;;10.57;9.32;;;;;;;;;;5034007;28;20029;-63
2021/06/13 06:17:24;;;;;;;10.02;8.73;;;;;;;;;;5034048;28;20041;-63
2021/06/13 06:19:50;;;;;;;13.93;9.63;;;;;;;;;;5033704;28;20041;-63
2021/06/13 06:22:16;;;;;;;11.88;9.45;;;;;;;;;;5033300;28;20030;-65
2021/06/13 06:24:42;;;;;;;10.23;9.20;;;;;;;;;;5034551;28;20369;-65
2021/06/13 06:27:08;;;;;;;10.70;9.07;;;;;;;;;;5033309;28;20033;-68
2021/06/13 06:29:34;;;;;;;9.05;8.18;;;;;;;;;;5019463;28;20109;-68
2021/06/13 06:32:01;;;;;;;9.85;8.85;;;;;;;;;;5023411;28;20026;-67
2021/06/13 06:34:27;;;;;;;9.48;8.50;;;;;;;;;;5029616;28;20025;-68
2021/06/13 06:36:53;;;;;;;11.32;8.18;;;;;;;;;;5033166;28;20104;-66
2021/06/13 06:39:19;;;;;;;9.90;8.90;;;;;;;;;;5033327;28;20028;-66
2021/06/13 06:41:45;;;;;;;9.77;8.80;;;;;;;;;;5033439;28;20024;-66
2021/06/13 06:44:12;;;;;;;11.68;9.43;;;;;;;;;;5033178;28;20379;-66
2021/06/13 06:46:38;;;;;;;10.65;9.55;;;;;;;;;;5033059;28;20022;-71
2021/06/13 06:49:05;;;;;;;11.07;8.25;;;;;;;;;;5033198;28;20021;-62
2021/06/13 06:51:31;;;;;;;10.35;7.85;;;;;;;;;;5032839;28;20094;-68
2021/06/13 06:53:58;;;;;;;9.65;7.75;;;;;;;;;;5037887;28;20048;-65
2021/06/13 06:56:28;;;;;;;10.20;8.07;;;;;;;;;;5037764;28;20023;-63
2021/06/13 06:58:54;;;;;;;9.43;7.45;;;538.40;2406.40;;;;;;5032925;28;20026;-62
2021/06/13 07:01:21;;;;;;;12.13;7.13;;;538.20;2406.40;;;;;;5032924;28;20448;-65
2021/06/13 07:03:47;;;;;;;9.50;6.90;;;538.40;2380.80;;;;;;5032720;28;20018;-65
2021/06/13 07:06:13;;;;;;;7.50;6.70;;;538.40;2406.40;;;;;;5032682;28;20035;-68
2021/06/13 07:08:39;;;;;;;11.85;7.03;;;538.40;2380.80;;;;;;5032552;28;20380;-66
2021/06/13 07:11:05;;;;;;;9.10;7.47;;;538.40;2406.40;;;;;;5033271;28;20091;-62
2021/06/13 07:13:31;;;;;;;8.35;6.60;;;538.30;2406.40;;;;;;5032351;28;20116;-63
2021/06/13 07:15:57;;;;;;;9.13;7.20;;;538.30;2380.80;;;;;;5032183;28;20043;-66
2021/06/13 07:18:23;;;;;;;9.88;7.80;;;538.20;2406.40;;;;;;5032810;28;20555;-63
2021/06/13 07:20:49;;;;;;;10.60;8.30;;;538.30;2406.40;;;;;;5032339;28;20025;-64
2021/06/13 07:23:15;;;;;;;9.65;8.50;;;538.00;2406.40;;;;;;5020604;28;20468;-68
2021/06/13 07:25:41;;;;;;;9.52;8.52;;;538.00;2406.40;;;;;;5017989;28;20419;-62
2021/06/13 07:28:06;;;;;;;11.50;8.05;;;537.90;2406.40;;;;;;5026557;28;20441;-64
2021/06/13 07:30:33;;;;;;;17.20;15.18;;;538.00;2406.40;;;;;;5024836;28;20079;-67
2021/06/13 07:33:03;;;;;;;14.45;12.43;;;538.00;2406.40;;;;;;5032230;28;20040;-62
2021/06/13 07:35:29;;;;;;;15.65;13.95;;;537.70;2406.40;;;;;;5032459;28;20025;-62
2021/06/13 07:37:54;;;;;;;12.57;9.93;;;537.70;2406.40;;;;;;5032264;28;20029;-61
2021/06/13 07:40:21;;;;;;;13.93;11.77;;;537.70;2406.40;;;;;;5032506;28;20030;-62
2021/06/13 07:42:47;;;;;;;11.90;10.65;;;537.70;2406.40;;;;;;5032292;28;20028;-63
2021/06/13 07:45:14;;;;;;;9.20;8.30;;;537.60;2406.40;;;;;;5032241;28;20025;-62
2021/06/13 07:47:40;;;;;;;9.45;8.40;;;537.90;2406.40;;;;;;5032288;28;20032;-62
2021/06/13 07:50:09;;;;;;;11.52;9.65;;;538.00;2406.40;;;;;;5036490;28;20383;-61
2021/06/13 07:52:35;;;;;;;10.10;8.43;;;538.00;2406.40;;;;;;5036243;28;20050;-63
2021/06/13 07:55:01;;;;;;;12.38;10.50;;;538.00;2380.80;;;;;;5041640;28;20021;-62
2021/06/13 07:57:27;;;;;;;10.50;9.07;;;538.00;2380.80;;;;;;5014430;28;20025;-64
2021/06/13 07:59:53;;;;;;;11.05;9.52;;;537.90;2406.40;;;;;;5032295;28;20034;-64
2021/06/13 08:02:19;;;;;;;10.10;7.63;;;538.00;2406.40;;;;;;5032088;28;20025;-71
2021/06/13 08:04:49;;;;;;;8.43;7.07;;;538.00;2380.80;;;;;;5032639;28;20025;-72
2021/06/13 08:07:15;;;;;;;7.78;6.95;;;538.00;2329.60;;;;;;5031933;28;20060;-70
2021/06/13 08:09:41;;;;;;;14.40;8.15;;;537.80;2355.20;;;;;;5032124;28;20109;-70
2021/06/13 08:12:07;;;;;;;9.30;8.27;;;537.90;2380.80;;;;;;5031871;28;20022;-72
2021/06/13 08:14:33;;;;;;;7.93;6.93;;;537.60;2406.40;;;;;;5031970;28;20030;-71
2021/06/13 08:16:59;;;;;;;7.82;7.03;;;512.90;2380.80;;;;;;5031799;28;20104;-70
2021/06/13 08:19:24;;;;;;;9.05;7.10;;;512.80;2380.80;;;;;;5032158;28;20037;-73
2021/06/13 08:21:51;;;;;;;8.70;7.00;;;512.80;2380.80;;;;;;5031889;28;20025;-69
2021/06/13 08:24:17;;;;;;;8.05;6.78;;;537.60;2406.40;;;;;;5031993;28;20098;-69
2021/06/13 08:26:43;;;;;;;7.78;6.93;;;512.90;2380.80;;;;;;5032069;28;20109;-72
2021/06/13 08:29:08;;;;;;;8.52;6.93;;;512.80;2380.80;;;;;;5021515;28;20037;-70
2021/06/13 08:31:34;;;;;;;7.47;6.30;;;512.60;2380.80;;;;;;5035851;28;20040;-72
2021/06/13 08:34:00;;;;;;;9.02;7.25;;;512.50;2380.80;;;;;;5035436;28;20037;-71
2021/06/13 08:36:26;;;;;;;7.50;6.60;;;512.60;2380.80;;;;;;5035285;28;20101;-69
2021/06/13 08:38:55;;;;;;;7.90;6.50;;;512.50;2380.80;;;;;;5035643;28;20079;-72
2021/06/13 08:41:21;;;;;;;8.65;7.40;;;512.60;2380.80;;;;;;5035348;28;20052;-69
2021/06/13 08:43:48;;;;;;;10.68;7.00;;;512.90;2355.20;;;;;;5017757;28;20075;-68
2021/06/13 08:46:14;;;;;;;8.60;6.25;;;512.90;2355.20;;;;;;5035176;28;20088;-72
2021/06/13 08:48:44;;;;;;;7.43;6.38;;;537.60;2304.00;;;;;;5035284;28;20034;-69
2021/06/13 08:51:10;;;;;;;6.82;5.90;;;537.70;2278.40;;;;;;5035182;28;20036;-72
2021/06/13 08:53:35;;;;;;;8.85;6.50;;;537.90;2329.60;;;;;;5036149;28;20416;-72
2021/06/13 08:56:01;;;;;;;8.05;6.60;;;538.10;2278.40;;;;;;5043258;28;20021;-72
2021/06/13 08:58:27;;;;;;;11.73;7.03;;;537.90;2278.40;;;;;;5017240;28;20025;-72
2021/06/13 09:00:53;;;;;;;8.45;6.90;;;537.90;2252.80;;;;;;5035106;28;20033;-72
2021/06/13 09:03:20;;;;;;;9.88;6.65;;;538.00;2252.80;;;;;;5035123;28;20037;-69
2021/06/13 09:05:46;;;;;;;7.97;5.85;;;538.00;2227.20;;;;;;5034899;28;20033;-69
2021/06/13 09:08:13;;;;;;;6.45;5.63;;;538.30;2176.00;;;;;;5034957;28;20029;-71
2021/06/13 09:10:42;;;;;;;6.47;5.35;;;538.50;2150.40;;;;;;5034822;28;20030;-69
2021/06/13 09:13:10;;;;;;;6.50;5.30;;;;;;;;;;5035189;28;20372;-70
2021/06/13 09:15:37;;;;;;;6.43;5.00;;;;;;;;;;5034850;28;20017;-71
2021/06/13 09:18:03;;;;;;;6.93;5.25;;;;;;;;;;5034833;28;20033;-72
2021/06/13 09:20:30;;;;;;;6.22;5.63;;;589.00;1920.00;;;;;;5034531;28;20026;-69
2021/06/13 09:23:11;;;;;;;6.60;4.18;;;589.10;1894.40;;;;;;5034229;28;20033;-72
2021/06/13 09:25:41;;;;;;;6.78;4.68;;;;;;;;;;5016905;28;20041;-71
2021/06/13 09:28:07;;;;;;;5.05;4.20;;;;;;;;;;5028894;28;20025;-69
2021/06/13 09:30:34;;;;;;;7.30;4.47;;;;;;;;;;5026958;28;20475;-70
2021/06/13 09:33:12;;;;;;;5.40;4.13;;;;;;;;;;5034303;28;20041;-70
2021/06/13 09:35:38;;;;;;;7.53;4.45;;;;;;;;;;5034756;28;20076;-70
2021/06/13 09:38:04;;;;;;;5.78;4.47;;;;;;;;;;5033927;28;20097;-72
2021/06/13 09:40:30;;;;;;;4.47;4.03;;;;;;;;;;5034530;28;20092;-67
2021/06/13 09:42:57;;;;;;;5.72;4.35;;;;;;;;;;5034299;28;20068;-72
2021/06/13 09:45:26;;;;;;;7.10;4.70;;;;;;;;;;5034400;28;20112;-69
2021/06/13 09:48:01;;;;;;;7.05;4.28;;;;;;;;;;5034046;28;20479;-67
2021/06/13 09:50:45;;;;;;;7.78;4.50;;;589.70;1587.20;;;;;;5034407;28;20052;-71
2021/06/13 09:53:31;;;;;;;9.93;5.15;;;;;;;;;;5033814;28;20033;-71
2021/06/13 09:56:20;;;;;;;4.97;4.28;;;;;;;;;;5034030;28;20033;-70
2021/06/13 09:58:47;;;;;;;7.03;4.30;;;;;;;;;;5021468;28;20117;-71
2021/06/13 10:01:14;;;;;;;9.55;4.97;;;;;;;;;;5034334;28;20107;-69
2021/06/13 10:03:40;;;;;;;4.50;3.80;;;;;;;;;;5033841;28;20049;-69
2021/06/13 10:06:07;;;;;;;9.45;5.75;;;;;;;;;;5034307;28;20079;-72
2021/06/13 10:08:34;;;;;;;4.55;3.40;;;;;;;;;;5033604;28;20101;-69
2021/06/13 10:11:01;;;;;;;6.32;4.05;;;;;;;;;;5033738;28;20029;-69
2021/06/13 10:13:42;;;;;;;6.70;4.00;;;;;;;;;;5033642;28;20030;-73
2021/06/13 10:16:10;;;;;;;8.95;3.80;;;;;;;;;;5033979;28;20025;-73
2021/06/13 10:18:39;;;;;;;6.05;4.05;;;;;;;;;;5033795;28;20152;-71
2021/06/13 10:21:08;;;;;;;6.13;4.30;;;;;;;;;;5015683;28;20017;-72
2021/06/13 10:23:36;;;;;;;5.38;4.20;;;;;;;;;;5033373;28;20371;-72
2021/06/13 10:26:02;;;;;;;5.40;4.15;;;;;;;;;;5046688;28;20018;-71
2021/06/13 10:28:29;;;;;;;6.65;4.10;;;;;;;;;;5024750;28;20105;-69
2021/06/13 10:30:56;;;;;;;4.97;3.40;;;;;;;;;;5028677;28;20067;-68
2021/06/13 10:33:22;;;;;;;5.35;3.55;;;;;;;;;;5033497;28;20033;-69
2021/06/13 10:35:49;;;;;;;5.85;4.18;;;;;;;;;;5033654;28;20021;-71
2021/06/13 10:38:14;;;;;;;5.32;4.28;;;640.50;1382.40;;;;;;5033006;28;20484;-71
2021/06/13 10:40:40;;;;;;;6.45;3.80;;;640.60;1356.80;;;;;;5033689;28;20033;-68
2021/06/13 10:43:06;;;;;;;5.35;3.80;;;640.60;1382.40;;;;;;5033063;28;20044;-71
2021/06/13 10:45:32;;;;;;;6.53;3.75;;;640.90;1331.20;;;;;;5033544;28;20021;-72
2021/06/13 10:48:05;;;;;;;8.60;3.90;;;640.80;1331.20;;;;;;5033199;28;20097;-72
2021/06/13 10:50:35;;;;;;;5.22;4.05;;;640.90;1280.00;;;;;;5032610;28;20021;-68
2021/06/13 10:53:04;;;;;;;8.93;3.92;;;640.70;1305.60;;;;;;5032720;28;20076;-72
2021/06/13 10:56:13;;;;;;;5.07;4.13;;;665.60;1331.20;;;;;;5041680;28;20029;-67
2021/06/13 10:58:50;;;;;;;4.95;3.53;;;666.10;1356.80;;;;;;4942920;29;20102;-71
2021/06/13 11:01:26;;;;;;;25.42;15.15;;;666.10;1305.60;;;;;;4933570;29;20035;-71
2021/06/13 11:04:06;;;;;;;11.38;7.35;;;666.20;1280.00;;;;;;4933597;29;20043;-67
2021/06/13 11:06:45;;;;;;;16.67;10.00;;;666.20;1254.40;;;;;;4933383;29;20043;-73
2021/06/13 11:09:14;;;;;;;36.13;20.80;;;666.20;1254.40;;;;;;4933417;29;20020;-72
2021/06/13 11:11:43;;;;;;;13.07;9.65;;;666.20;1305.60;;;;;;4920130;29;20043;-69
2021/06/13 11:14:26;;;;;;;20.83;13.90;;;666.20;1305.60;;;;;;4932986;29;20062;-73
2021/06/13 11:16:59;;;;;;;46.05;28.60;;;665.90;1305.60;;;;;;4932800;29;20560;-70
2021/06/13 11:19:26;;;;;;;11.40;6.75;;;665.60;1331.20;;;;;;4929014;28;20167;-69
2021/06/13 11:22:16;;;;;;;7.75;5.75;;;640.70;1305.60;;;;;;4920456;29;20517;-69
2021/06/13 11:24:52;;;;;;;13.02;8.45;;;640.90;1280.00;;;;;;4933662;29;20055;-70
2021/06/13 11:27:18;;;;;;;6.75;4.75;;;665.60;1305.60;;;;;;4918931;29;20047;-72
2021/06/13 11:29:53;;;;;;;7.63;5.53;;;665.70;1280.00;;;;;;4932772;29;20103;-72
2021/06/13 11:32:47;;;;;;;27.85;18.52;;;665.70;1280.00;;;;;;4962397;28;20034;-71
2021/06/13 11:35:28;;;;;;;12.25;8.52;;;665.90;1305.60;;;;;;5021081;28;20029;-71
2021/06/13 11:38:09;;;;;;;11.05;5.72;;;666.10;1254.40;;;;;;5018465;28;20025;-72
2021/06/13 11:40:48;;;;;;;93.53;59.28;;;666.10;1254.40;;;;;;5022803;28;20025;-69
2021/06/13 11:43:19;;;;;;;33.65;21.40;;;666.20;1280.00;;;;;;5014290;28;20452;-69
2021/06/13 11:45:56;;;;;;;20.98;13.25;;;666.50;1203.20;;;;;;5012829;28;20407;-71
2021/06/13 11:48:26;;;;;;;12.60;8.48;;;666.30;1228.80;;;;;;5012570;28;20029;-72
2021/06/13 11:51:04;;;;;;;25.77;15.40;;;666.30;1254.40;;;;;;5012280;28;20026;-72
2021/06/13 11:53:54;;;;;;;65.00;39.70;;;666.40;1254.40;;;;;;5012089;28;20045;-70
2021/06/13 11:58:59;;;;;;;11.38;7.45;;;666.50;1228.80;;;;;;5013244;28;20022;-70
2021/06/13 12:01:25;;;;;;;58.05;36.30;;;666.40;1228.80;;;;;;5013344;28;20030;-73
2021/06/13 12:03:52;;;;;;;28.38;17.50;;;666.50;1254.40;;;;;;5016778;28;20107;-73
2021/06/13 12:06:21;;;;;;;7.10;5.75;;;666.30;1254.40;;;;;;5016318;28;20030;-71
2021/06/13 12:08:50;;;;;;;9.45;6.47;;;665.90;1254.40;;;;;;5016100;28;20026;-71
2021/06/13 12:11:32;;;;;;;27.88;16.75;;;665.70;1305.60;;;;;;5016394;28;20030;-73
2021/06/13 12:14:35;;;;;;;11.90;7.72;;;640.80;1280.00;;;;;;5016212;28;20026;-69
2021/06/13 12:17:02;;;;;;;9.75;6.05;;;640.90;1280.00;;;;;;4997934;28;20057;-69
2021/06/13 12:19:33;;;;;;;16.23;11.35;;;665.80;1254.40;;;;;;5016255;28;20087;-70
2021/06/13 12:27:49;;;;;;;35.42;22.25;;;666.20;1305.60;;;;;;5015876;28;20770;-73
2021/06/13 12:30:24;;;;;;;21.48;12.75;;;666.10;1280.00;;;;;;5025718;28;20471;-72
2021/06/13 12:33:06;;;;;;;14.20;7.15;;;666.30;1254.40;;;;;;5035506;28;20400;-73
2021/06/13 12:35:34;;;;;;;8.32;5.88;;;666.30;1254.40;;;;;;5036072;28;20036;-72
2021/06/13 12:38:08;;;;;;;24.10;14.43;;;666.30;1254.40;;;;;;5035659;28;20049;-70
2021/06/13 12:40:38;;;;;;;8.90;6.53;;;666.40;1254.40;;;;;;5035812;28;20036;-72
2021/06/13 12:43:05;;;;;;;35.33;23.53;;;666.50;1177.60;;;;;;5020760;28;20080;-72
2021/06/13 12:45:32;;;;;;;12.27;5.50;;;666.50;1280.00;;;;;;5022647;28;20025;-71
2021/06/13 12:48:01;;;;;;;7.43;5.60;;;666.30;1203.20;;;;;;5017051;28;20018;-69
2021/06/13 12:50:30;;;;;;;13.93;7.70;;;666.40;1228.80;;;;;;5020304;28;20026;-71
2021/06/13 12:52:58;;;;;;;17.67;10.10;;;666.30;1228.80;;;;;;5015091;28;20046;-73
2021/06/13 12:55:30;;;;;;;8.38;6.30;;;666.50;1254.40;;;;;;5029833;28;20468;-72
2021/06/13 12:57:56;;;;;;;6.88;6.00;;;691.20;1228.80;;;;;;5024153;28;20060;-70
2021/06/13 13:00:22;;;;;;;16.15;8.50;;;691.20;1228.80;;;;;;5015305;28;20049;-72
2021/06/13 13:03:07;;;;;;;15.18;8.05;;;666.50;1280.00;;;;;;5015638;28;20480;-68
2021/06/13 13:05:33;;;;;;;10.07;7.65;;;666.50;1254.40;;;;;;5015219;28;20022;-70